Terminal Aerodrome Forecast
Issued by NWS

Home | Current Version | Previous Version | Text Only | Print | Product List | Glossary On
Versions: 1 2 3 4 5 6 7 8 9 10 11 12 13 14 15
000
FTUS45 KSLC 252325
TAFBCE
TAF
KBCE 252325Z 2600/2624 23012G22KT P6SM SCT100 SCT140
     FM260200 23008KT P6SM VCSH SCT140
     FM260700 27008KT P6SM SCT140
     FM261600 17010KT P6SM SCT120=

USA.gov is the U.S. government's official web portal to all federal, state and local government web resources and services.